Time;durP1;ratioP1;P1;durP2;ratioP2;P2;SDS_P1;SDS_P2;PMS_P1;PMS_P2;Temp;Humidity;BMP_temperature;BMP_pressure;BME280_temperature;BME280_humidity;BME280_pressure;Samples;Min_cycle;Max_cycle;Signal;HPM_P1;HPM_P2
2021/09/28 00:02:22;;;;;;;8.40;6.97;;;17.10;99.90;17.20;100918.00;;;;4973909;28;109902;-64
2021/09/28 00:04:48;;;;;;;13.38;7.13;;;17.10;99.90;17.10;100920.00;;;;4973638;28;93160;-64
2021/09/28 00:07:16;;;;;;;6.82;6.20;;;17.10;99.90;17.10;100931.00;;;;4974818;28;92965;-64
2021/09/28 00:09:42;;;;;;;9.25;7.10;;;17.00;99.90;17.10;100939.00;;;;4973546;28;92913;-64
2021/09/28 00:12:08;;;;;;;7.95;6.25;;;17.10;99.90;17.10;100934.00;;;;4974089;28;92974;-64
2021/09/28 00:14:34;;;;;;;7.90;6.22;;;16.90;99.90;17.00;100944.00;;;;4973033;28;94999;-64
2021/09/28 00:17:00;;;;;;;11.93;6.45;;;17.00;99.90;17.00;100945.00;;;;4974186;28;102347;-64
2021/09/28 00:19:25;;;;;;;6.15;5.47;;;16.90;99.90;17.00;100944.00;;;;4973567;28;92876;-64
2021/09/28 00:21:51;;;;;;;9.57;5.97;;;16.90;99.90;17.00;100941.00;;;;4973555;28;108390;-64
2021/09/28 00:24:17;;;;;;;8.82;6.18;;;16.90;99.90;17.00;100944.00;;;;4972524;28;122657;-64
2021/09/28 00:26:43;;;;;;;8.48;6.85;;;16.90;99.90;17.00;100942.00;;;;4973689;28;93736;-64
2021/09/28 00:29:09;;;;;;;8.45;5.72;;;16.90;99.90;17.00;100937.00;;;;4973054;28;110954;-64
2021/09/28 00:31:35;;;;;;;6.40;5.00;;;16.90;99.90;17.00;100954.00;;;;4974529;28;92020;-65
2021/09/28 00:34:01;;;;;;;11.73;6.32;;;16.90;99.90;16.90;100943.00;;;;4972505;28;121904;-64
2021/09/28 00:36:27;;;;;;;8.02;6.55;;;16.80;99.90;16.90;100948.00;;;;4973169;28;101934;-64
2021/09/28 00:38:52;;;;;;;11.15;7.18;;;16.80;99.90;16.90;100949.00;;;;4972922;28;96922;-65
2021/09/28 00:41:18;;;;;;;8.65;6.88;;;16.80;99.90;16.90;100953.00;;;;4974081;28;92974;-64
2021/09/28 00:43:46;;;;;;;8.93;5.82;;;16.80;99.90;16.90;100948.00;;;;4973480;28;93682;-64
2021/09/28 00:46:12;;;;;;;10.57;7.03;;;16.80;99.90;16.90;100950.00;;;;4973579;28;92844;-64
2021/09/28 00:48:38;;;;;;;8.02;5.78;;;16.80;99.90;16.90;100951.00;;;;4972819;28;110599;-64
2021/09/28 00:51:04;;;;;;;7.15;5.60;;;16.80;99.90;16.90;100960.00;;;;4972859;28;93152;-64
2021/09/28 00:53:31;;;;;;;10.80;6.15;;;16.80;99.90;16.90;100952.00;;;;4972126;28;123160;-64
2021/09/28 00:55:57;;;;;;;8.77;6.18;;;16.80;99.90;16.90;100962.00;;;;4973681;28;92829;-64
2021/09/28 00:58:23;;;;;;;9.07;6.50;;;16.80;99.90;16.90;100961.00;;;;4973425;28;92948;-64
2021/09/28 01:00:52;;;;;;;9.77;6.65;;;16.80;99.90;16.90;100965.00;;;;4972869;28;109322;-64
2021/09/28 01:03:19;;;;;;;8.73;5.40;;;16.80;99.90;16.90;100954.00;;;;4971313;28;123919;-64
2021/09/28 01:05:44;;;;;;;8.82;5.65;;;16.80;99.90;16.90;100956.00;;;;4973003;28;100557;-64
2021/09/28 01:08:10;;;;;;;13.25;6.93;;;16.80;99.90;16.90;100963.00;;;;4972717;28;109641;-64
2021/09/28 01:10:36;;;;;;;8.52;6.22;;;16.80;99.90;16.90;100957.00;;;;4972659;28;109444;-64
2021/09/28 01:13:02;;;;;;;9.25;6.45;;;16.80;99.90;16.90;100970.00;;;;4954896;28;122017;-64
2021/09/28 01:15:28;;;;;;;9.00;6.85;;;16.80;99.90;16.90;100970.00;;;;4971895;28;123775;-64
2021/09/28 01:17:54;;;;;;;9.18;6.47;;;16.80;99.90;16.90;100965.00;;;;4971942;28;109748;-64
2021/09/28 01:20:19;;;;;;;10.05;6.82;;;16.80;99.90;16.90;100962.00;;;;4973102;28;108215;-64
2021/09/28 01:22:46;;;;;;;6.80;5.88;;;16.80;99.90;16.90;100956.00;;;;4971672;28;123191;-65
2021/09/28 01:25:13;;;;;;;7.25;5.05;;;16.80;99.90;16.90;100950.00;;;;4971754;28;121770;-64
2021/09/28 01:27:39;;;;;;;8.27;6.88;;;16.80;99.90;16.90;100963.00;;;;4971669;28;93630;-64
2021/09/28 01:30:08;;;;;;;11.00;6.10;;;16.80;99.90;16.80;100957.00;;;;4973167;28;92948;-63
2021/09/28 01:32:33;;;;;;;10.48;5.80;;;16.80;99.90;16.80;100962.00;;;;4968716;28;110034;-63
2021/09/28 01:35:01;;;;;;;9.10;5.63;;;16.70;99.90;16.80;100955.00;;;;4972032;28;110043;-66
2021/09/28 01:37:27;;;;;;;9.27;4.93;;;16.80;99.90;16.80;100957.00;;;;4972725;28;92657;-65
2021/09/28 01:39:52;;;;;;;10.02;6.18;;;16.70;99.90;16.80;100958.00;;;;4972746;28;98191;-63
2021/09/28 01:42:18;;;;;;;7.28;5.72;;;16.70;99.90;16.80;100956.00;;;;4972617;28;92902;-63
2021/09/28 01:44:44;;;;;;;8.40;5.75;;;16.80;99.90;16.80;100961.00;;;;4972225;28;93650;-64
2021/09/28 01:47:10;;;;;;;9.80;6.22;;;16.70;99.90;16.80;100968.00;;;;4972728;28;100315;-63
2021/09/28 01:49:35;;;;;;;11.15;6.35;;;16.80;99.90;16.80;100964.00;;;;4972086;28;98763;-65
2021/09/28 01:52:01;;;;;;;8.13;5.47;;;16.70;99.90;16.80;100968.00;;;;4971358;28;124450;-65
2021/09/28 01:54:27;;;;;;;10.40;5.30;;;16.70;99.90;16.80;100968.00;;;;4971916;28;103659;-65
2021/09/28 01:56:53;;;;;;;9.13;5.63;;;16.70;99.90;16.80;100964.00;;;;4972399;28;93093;-64
2021/09/28 01:59:19;;;;;;;10.88;6.18;;;16.70;99.90;16.80;100969.00;;;;4971893;28;107849;-64
2021/09/28 02:01:44;;;;;;;8.40;6.03;;;16.70;99.90;16.80;100963.00;;;;4971850;28;118557;-65
2021/09/28 02:04:10;;;;;;;9.63;6.75;;;16.70;99.90;16.70;100972.00;;;;4976092;28;92793;-65
2021/09/28 02:06:39;;;;;;;11.07;6.63;;;16.60;99.90;16.70;100970.00;;;;4975988;28;92709;-64
2021/09/28 02:09:07;;;;;;;7.72;5.63;;;16.60;99.90;16.70;100971.00;;;;4975874;28;92313;-64
2021/09/28 02:11:35;;;;;;;8.27;5.85;;;16.60;99.90;16.70;100981.00;;;;4976020;28;93476;-64
2021/09/28 02:14:03;;;;;;;9.35;6.78;;;16.60;99.90;16.70;100965.00;;;;4956887;28;93382;-64
2021/09/28 02:16:29;;;;;;;9.07;6.15;;;16.50;99.90;16.60;100967.00;;;;4975470;28;93871;-64
2021/09/28 02:18:55;;;;;;;11.88;6.43;;;16.50;99.90;16.60;100972.00;;;;4973284;28;109055;-64
2021/09/28 02:21:21;;;;;;;7.22;5.53;;;16.50;99.90;16.60;100976.00;;;;4974592;28;123526;-65
2021/09/28 02:23:47;;;;;;;12.30;6.63;;;16.50;99.90;16.60;100970.00;;;;4974398;28;113334;-64
2021/09/28 02:26:13;;;;;;;9.95;6.50;;;16.50;99.90;16.60;100965.00;;;;4975524;28;110718;-64
2021/09/28 02:28:39;;;;;;;10.10;6.25;;;16.50;99.90;16.60;100973.00;;;;4975572;28;92939;-64
2021/09/28 02:31:05;;;;;;;9.50;6.18;;;16.50;99.90;16.60;100978.00;;;;4974896;28;122810;-64
2021/09/28 02:33:30;;;;;;;8.32;6.28;;;16.50;99.90;16.60;100972.00;;;;4974408;28;122531;-64
2021/09/28 02:35:56;;;;;;;11.07;6.00;;;16.50;99.90;16.60;100975.00;;;;4974983;28;109693;-64
2021/09/28 02:38:22;;;;;;;8.82;5.82;;;16.50;99.90;16.60;100972.00;;;;4975171;28;92919;-65
2021/09/28 02:40:48;;;;;;;8.35;5.13;;;16.50;99.90;16.70;100967.00;;;;4973233;28;124905;-65
2021/09/28 02:43:14;;;;;;;7.38;5.10;;;16.50;99.90;16.70;100979.00;;;;4974208;28;107038;-64
2021/09/28 02:45:40;;;;;;;6.78;5.70;;;16.60;99.90;16.70;100975.00;;;;4976212;28;92820;-64
2021/09/28 02:48:06;;;;;;;10.35;6.35;;;16.60;99.90;16.70;100973.00;;;;4980847;28;92970;-65
2021/09/28 02:50:34;;;;;;;8.75;6.05;;;16.60;99.90;16.70;100978.00;;;;4979076;28;123108;-65
2021/09/28 02:53:01;;;;;;;9.77;6.28;;;16.60;99.90;16.70;100976.00;;;;4948921;28;93073;-65
2021/09/28 02:55:28;;;;;;;10.77;6.47;;;16.60;99.90;16.70;100969.00;;;;4969097;28;92847;-65
2021/09/28 02:57:53;;;;;;;7.53;5.38;;;16.60;99.90;16.60;100973.00;;;;4975561;28;92168;-64
2021/09/28 03:00:19;;;;;;;7.38;5.25;;;16.60;99.90;16.60;100976.00;;;;4974912;28;113716;-64
2021/09/28 03:02:45;;;;;;;9.57;4.97;;;16.50;99.90;16.60;100972.00;;;;4974741;28;93099;-64
2021/09/28 03:05:10;;;;;;;6.97;5.28;;;16.50;99.90;16.60;100974.00;;;;4974127;28;109130;-64
2021/09/28 03:07:36;;;;;;;6.15;4.80;;;16.50;99.90;16.60;100971.00;;;;4973952;28;108893;-64
2021/09/28 03:10:02;;;;;;;8.40;5.00;;;16.50;99.90;16.50;100981.00;;;;4974251;28;110878;-64
2021/09/28 03:12:28;;;;;;;6.70;4.95;;;16.40;99.90;16.50;100980.00;;;;4974128;28;103626;-64
2021/09/28 03:14:54;;;;;;;7.82;5.68;;;16.40;99.90;16.40;100974.00;;;;4974052;28;92909;-64
2021/09/28 03:17:19;;;;;;;6.30;4.75;;;16.40;99.90;16.40;100974.00;;;;4975203;28;93114;-64
2021/09/28 03:19:45;;;;;;;8.27;5.45;;;16.30;99.90;16.30;100976.00;;;;4972835;28;122647;-64
2021/09/28 03:22:11;;;;;;;8.75;5.43;;;16.20;99.90;16.20;100977.00;;;;4974427;28;122845;-65
2021/09/28 03:24:36;;;;;;;7.50;5.53;;;16.20;99.90;16.10;100978.00;;;;4973642;28;110560;-64
2021/09/28 03:27:02;;;;;;;10.20;5.22;;;16.10;99.90;16.00;100986.00;;;;4973345;28;109655;-64
2021/09/28 03:29:28;;;;;;;10.45;5.43;;;16.00;99.90;16.00;100985.00;;;;4973792;28;102669;-64
2021/09/28 03:31:54;;;;;;;10.20;5.50;;;15.90;99.90;15.90;100986.00;;;;4974736;28;94792;-64
2021/09/28 03:34:19;;;;;;;6.43;4.53;;;15.90;99.90;15.80;100983.00;;;;4973799;28;109959;-64
2021/09/28 03:36:45;;;;;;;7.20;5.35;;;15.80;99.90;15.70;100990.00;;;;4974566;28;108908;-64
2021/09/28 03:39:11;;;;;;;7.97;4.60;;;15.90;99.90;15.70;100988.00;;;;4973294;28;123107;-64
2021/09/28 03:41:37;;;;;;;7.03;5.20;;;15.70;99.90;15.60;100989.00;;;;4973888;28;93895;-65
2021/09/28 03:44:03;;;;;;;7.40;4.65;;;15.60;99.90;15.50;100983.00;;;;4976731;28;93168;-64
2021/09/28 03:46:29;;;;;;;7.97;4.63;;;15.50;99.90;15.50;100992.00;;;;4974225;28;92207;-64
2021/09/28 03:48:55;;;;;;;7.03;4.78;;;15.60;99.90;15.40;100989.00;;;;4973671;28;121258;-64
2021/09/28 03:51:20;;;;;;;9.20;5.30;;;15.40;99.90;15.40;100992.00;;;;4974393;28;93424;-64
2021/09/28 03:53:50;;;;;;;6.53;4.80;;;15.40;99.90;15.40;100993.00;;;;4972418;28;110740;-64
2021/09/28 03:56:18;;;;;;;7.53;4.82;;;15.30;99.90;15.30;100997.00;;;;4974818;28;92908;-64
2021/09/28 03:58:44;;;;;;;8.90;4.90;;;15.30;99.90;15.30;101001.00;;;;4973451;28;106873;-64
2021/09/28 04:01:10;;;;;;;7.57;5.72;;;15.30;99.90;15.30;101010.00;;;;4973286;28;111044;-64
2021/09/28 04:03:36;;;;;;;10.05;6.43;;;15.40;99.90;15.20;101008.00;;;;4973009;28;109705;-64
2021/09/28 04:06:01;;;;;;;7.70;5.60;;;15.20;99.90;15.20;101003.00;;;;4973820;28;92892;-64
2021/09/28 04:08:27;;;;;;;16.10;6.15;;;15.20;99.90;15.20;101006.00;;;;4972317;28;122263;-64
2021/09/28 04:10:53;;;;;;;7.85;5.65;;;15.20;99.90;15.10;101011.00;;;;4973321;28;121906;-64
2021/09/28 04:13:18;;;;;;;11.73;5.40;;;15.10;99.90;15.10;101008.00;;;;4972709;28;105466;-64
2021/09/28 04:15:45;;;;;;;8.48;5.28;;;15.10;99.90;15.10;101011.00;;;;4974310;28;93174;-64
2021/09/28 04:18:12;;;;;;;11.82;5.35;;;15.00;99.90;15.10;101016.00;;;;4972958;28;95240;-64
2021/09/28 04:20:43;;;;;;;6.63;5.05;;;15.00;99.90;15.10;101020.00;;;;4974089;28;97505;-64
2021/09/28 04:23:11;;;;;;;9.87;6.43;;;15.00;99.90;15.10;101008.00;;;;4974051;28;92981;-64
2021/09/28 04:25:38;;;;;;;7.53;5.38;;;15.00;99.90;15.10;101020.00;;;;4973852;28;92847;-64
2021/09/28 04:28:04;;;;;;;11.13;5.57;;;15.00;99.90;15.20;101013.00;;;;4973195;28;93284;-65
2021/09/28 04:30:30;;;;;;;11.73;6.32;;;15.10;99.90;15.20;101018.00;;;;4973851;28;92879;-64
2021/09/28 04:32:56;;;;;;;8.40;6.30;;;15.10;99.90;15.20;101019.00;;;;4971136;28;93018;-65
2021/09/28 04:35:22;;;;;;;12.75;5.93;;;15.10;99.90;15.20;101021.00;;;;4955483;28;92039;-64
2021/09/28 04:37:48;;;;;;;7.75;5.75;;;15.20;99.90;15.30;101025.00;;;;4965873;28;94196;-65
2021/09/28 04:40:14;;;;;;;6.35;5.63;;;15.10;99.90;15.30;101024.00;;;;4963205;28;122042;-65
2021/09/28 04:42:40;;;;;;;7.70;6.10;;;15.20;99.90;15.30;101026.00;;;;4973326;28;93878;-64
2021/09/28 04:45:07;;;;;;;9.05;5.88;;;15.20;99.90;15.40;101020.00;;;;4971727;28;94179;-65
2021/09/28 04:47:33;;;;;;;9.50;6.30;;;15.30;99.90;15.40;101024.00;;;;4973271;28;93773;-64
2021/09/28 04:49:59;;;;;;;8.77;5.90;;;15.30;99.90;15.40;101038.00;;;;4973436;28;94023;-64
2021/09/28 04:52:25;;;;;;;9.55;6.53;;;15.30;99.90;15.40;101024.00;;;;4972694;28;92674;-65
2021/09/28 04:54:51;;;;;;;9.20;6.70;;;15.30;99.90;15.40;101029.00;;;;4973388;28;102517;-64
2021/09/28 04:57:16;;;;;;;10.55;6.15;;;15.30;99.90;15.40;101045.00;;;;4973102;28;93366;-65
2021/09/28 04:59:42;;;;;;;7.93;5.80;;;15.30;99.90;15.40;101036.00;;;;4973052;28;93612;-64
2021/09/28 05:02:08;;;;;;;7.00;6.30;;;15.30;99.90;15.30;101037.00;;;;4973715;28;92855;-65
2021/09/28 05:04:34;;;;;;;9.88;6.63;;;15.30;99.90;15.30;101039.00;;;;4972979;28;92947;-64
2021/09/28 05:07:00;;;;;;;11.73;7.22;;;15.30;99.90;15.30;101045.00;;;;4971754;28;119935;-64
2021/09/28 05:09:27;;;;;;;8.07;6.22;;;15.30;99.90;15.30;101053.00;;;;4972172;28;123361;-64
2021/09/28 05:11:55;;;;;;;10.82;6.90;;;15.30;99.90;15.40;101058.00;;;;4973588;28;92789;-64
2021/09/28 05:14:21;;;;;;;6.93;5.00;;;15.30;99.90;15.40;101057.00;;;;4963111;28;93231;-64
2021/09/28 05:16:47;;;;;;;7.70;5.60;;;15.30;99.90;15.40;101056.00;;;;4972169;28;107215;-64
2021/09/28 05:19:13;;;;;;;9.15;6.53;;;15.30;99.90;15.40;101059.00;;;;4971636;28;113365;-65
2021/09/28 05:21:39;;;;;;;10.98;6.90;;;15.30;99.90;15.40;101046.00;;;;4970568;28;110960;-64
2021/09/28 05:24:07;;;;;;;6.70;5.40;;;15.30;99.90;15.40;101054.00;;;;4967922;28;109688;-64
2021/09/28 05:26:33;;;;;;;9.80;6.97;;;15.40;99.90;15.50;101071.00;;;;4972794;28;93361;-64
2021/09/28 05:28:59;;;;;;;12.02;6.95;;;15.40;99.90;15.50;101060.00;;;;4973024;28;93187;-64
2021/09/28 05:31:24;;;;;;;9.52;6.10;;;15.40;99.90;15.60;101073.00;;;;4971546;28;100373;-65
2021/09/28 05:33:50;;;;;;;7.38;5.35;;;15.50;99.90;15.60;101077.00;;;;4972409;28;107529;-65
2021/09/28 05:36:16;;;;;;;7.70;5.80;;;15.50;99.90;15.70;101074.00;;;;4972000;28;112042;-65
2021/09/28 05:38:42;;;;;;;9.60;6.27;;;15.60;99.90;15.70;101075.00;;;;4975108;28;122582;-65
2021/09/28 05:41:09;;;;;;;9.77;6.10;;;15.60;99.90;15.80;101079.00;;;;4974381;28;110591;-64
2021/09/28 05:43:36;;;;;;;11.73;5.95;;;15.60;99.90;15.80;101084.00;;;;4974208;28;92932;-64
2021/09/28 05:46:02;;;;;;;10.32;6.63;;;16.00;99.90;15.90;101080.00;;;;4975484;28;93186;-65
2021/09/28 05:48:28;;;;;;;9.95;6.43;;;15.70;99.90;15.90;101086.00;;;;4967572;28;105004;-64
2021/09/28 05:50:54;;;;;;;6.63;5.55;;;15.80;99.90;16.00;101092.00;;;;4970459;28;110889;-64
2021/09/28 05:53:20;;;;;;;7.13;5.82;;;15.90;99.90;16.10;101093.00;;;;4973378;28;92894;-64
2021/09/28 05:55:46;;;;;;;9.45;6.43;;;15.90;99.90;16.10;101095.00;;;;4971915;28;94986;-64
2021/09/28 05:58:11;;;;;;;6.72;5.55;;;16.00;99.90;16.20;101096.00;;;;4949771;28;123405;-64
2021/09/28 06:00:37;;;;;;;10.70;6.38;;;16.10;99.90;16.30;101087.00;;;;4969180;28;96308;-64
2021/09/28 06:03:03;;;;;;;10.13;6.57;;;16.20;99.90;16.30;101092.00;;;;4972279;28;93391;-64
2021/09/28 06:05:29;;;;;;;8.55;5.65;;;16.20;99.90;16.40;101103.00;;;;4972697;28;92821;-64
2021/09/28 06:07:55;;;;;;;9.43;6.00;;;16.30;99.90;16.50;101109.00;;;;4972044;28;103239;-64
2021/09/28 06:10:21;;;;;;;9.02;5.78;;;16.30;99.90;16.50;101104.00;;;;4971999;28;110225;-64
2021/09/28 06:12:47;;;;;;;7.20;5.25;;;16.40;99.90;16.50;101114.00;;;;4973499;28;92254;-64
2021/09/28 06:15:13;;;;;;;10.40;5.60;;;16.40;99.90;16.60;101116.00;;;;4973186;28;93149;-64
2021/09/28 06:17:39;;;;;;;5.47;4.78;;;16.40;99.90;16.60;101119.00;;;;4976292;28;93657;-64
2021/09/28 06:20:05;;;;;;;8.68;5.13;;;16.50;99.90;16.70;101108.00;;;;4977467;28;94018;-64
2021/09/28 06:22:31;;;;;;;13.05;5.25;;;16.60;99.90;16.80;101109.00;;;;4971697;28;93315;-65
2021/09/28 06:24:57;;;;;;;7.93;5.35;;;16.60;99.90;16.90;101116.00;;;;4969538;28;124172;-64
2021/09/28 06:27:24;;;;;;;8.95;6.05;;;16.80;99.90;17.00;101123.00;;;;4971366;28;123507;-65
2021/09/28 06:29:51;;;;;;;7.97;5.15;;;16.90;99.90;17.10;101126.00;;;;4972610;28;92593;-65
2021/09/28 06:32:18;;;;;;;9.25;5.95;;;17.00;99.90;17.20;101125.00;;;;4972966;28;92930;-64
2021/09/28 06:34:45;;;;;;;7.63;4.72;;;17.10;99.90;17.30;101135.00;;;;4971227;28;94118;-65
2021/09/28 06:37:11;;;;;;;7.90;5.47;;;17.10;99.90;17.30;101136.00;;;;4972099;28;93914;-65
2021/09/28 06:39:37;;;;;;;7.43;5.55;;;17.10;99.90;17.30;101150.00;;;;4963433;28;92826;-65
2021/09/28 06:42:03;;;;;;;7.20;5.25;;;17.20;99.90;17.30;101148.00;;;;4973187;28;92806;-65
2021/09/28 06:44:29;;;;;;;7.78;4.80;;;17.20;99.90;17.40;101146.00;;;;4970816;28;106418;-65
2021/09/28 06:46:55;;;;;;;7.10;5.40;;;17.20;99.90;17.40;101143.00;;;;4972338;28;93350;-66
2021/09/28 06:49:21;;;;;;;10.75;4.45;;;17.20;99.90;17.40;101149.00;;;;4970837;28;93183;-66
2021/09/28 06:51:47;;;;;;;7.50;4.38;;;17.30;99.90;17.40;101160.00;;;;4972709;28;93229;-64
2021/09/28 06:54:13;;;;;;;5.80;3.78;;;17.30;99.90;17.40;101152.00;;;;4954838;28;106570;-65
2021/09/28 06:56:40;;;;;;;7.70;4.13;;;17.30;99.90;17.40;101164.00;;;;4971741;28;93191;-66
2021/09/28 06:59:08;;;;;;;4.20;3.30;;;17.30;99.90;17.40;101160.00;;;;4972315;28;93110;-65
2021/09/28 07:01:38;;;;;;;6.30;3.58;;;17.30;99.90;17.40;101170.00;;;;4972369;28;92025;-65
2021/09/28 07:04:05;;;;;;;5.80;3.10;;;17.30;99.90;17.40;101170.00;;;;4964510;28;94740;-66
2021/09/28 07:06:31;;;;;;;5.07;3.38;;;17.30;99.90;17.40;101177.00;;;;4971123;28;93031;-64
2021/09/28 07:08:57;;;;;;;4.65;2.80;;;17.30;99.90;17.40;101174.00;;;;4970039;28;110878;-65
2021/09/28 07:11:23;;;;;;;4.95;3.25;;;17.40;99.90;17.40;101172.00;;;;4972049;28;92946;-64
2021/09/28 07:13:49;;;;;;;5.78;2.97;;;17.30;99.90;17.40;101167.00;;;;4970822;28;106860;-64
2021/09/28 07:16:16;;;;;;;5.70;2.72;;;17.30;99.90;17.50;101172.00;;;;4971399;28;92835;-66
2021/09/28 07:18:42;;;;;;;2.45;2.20;;;17.60;99.90;17.50;101180.00;;;;4972476;28;93135;-65
2021/09/28 07:21:07;;;;;;;4.18;2.70;;;17.30;99.90;17.50;101186.00;;;;4972024;28;92655;-65
2021/09/28 07:23:33;;;;;;;3.30;1.88;;;17.40;99.90;17.60;101191.00;;;;4970971;28;122361;-64
2021/09/28 07:26:00;;;;;;;4.90;2.55;;;17.40;99.90;17.60;101187.00;;;;4971542;28;93416;-65
2021/09/28 07:28:26;;;;;;;2.28;1.67;;;17.40;99.90;17.60;101186.00;;;;4970993;28;92484;-65
2021/09/28 07:30:52;;;;;;;2.78;1.90;;;17.40;99.90;17.60;101190.00;;;;4971732;28;92952;-65
2021/09/28 07:33:18;;;;;;;1.90;1.80;;;17.50;99.90;17.60;101200.00;;;;4970499;28;94283;-65
2021/09/28 07:35:45;;;;;;;1.65;1.13;;;17.50;99.90;17.50;101206.00;;;;4971801;28;94063;-65
2021/09/28 07:38:13;;;;;;;1.05;1.00;;;17.40;99.90;17.50;101204.00;;;;4970968;28;92920;-64
2021/09/28 07:40:49;;;;;;;1.92;1.35;;;17.40;99.90;17.50;101210.00;;;;4971237;28;92886;-67
2021/09/28 07:43:15;;;;;;;1.63;1.50;;;17.40;99.90;17.50;101211.00;;;;4953710;28;93025;-65
2021/09/28 07:45:42;;;;;;;1.35;1.10;;;17.40;99.90;17.40;101217.00;;;;4970878;28;93614;-66
2021/09/28 07:48:08;;;;;;;2.15;1.40;;;17.30;99.90;17.40;101220.00;;;;4967266;28;93169;-64
2021/09/28 07:50:34;;;;;;;1.02;0.90;;;17.30;99.90;17.40;101228.00;;;;4969303;28;92105;-64
2021/09/28 07:52:59;;;;;;;4.68;1.27;;;17.50;99.90;17.40;101229.00;;;;4965711;28;93195;-67
2021/09/28 07:55:26;;;;;;;2.28;1.05;;;17.30;99.90;17.40;101232.00;;;;4967885;28;93495;-66
2021/09/28 07:57:53;;;;;;;0.98;0.98;;;17.30;99.90;17.40;101235.00;;;;4970579;28;93613;-67
2021/09/28 08:00:19;;;;;;;1.83;1.25;;;17.20;99.90;17.40;101234.00;;;;4969898;28;108531;-65
2021/09/28 08:02:45;;;;;;;1.17;0.75;;;17.20;99.90;17.40;101231.00;;;;4970193;28;98136;-64
2021/09/28 08:05:11;;;;;;;1.52;1.02;;;17.20;99.90;17.30;101247.00;;;;4981699;28;92904;-63
2021/09/28 08:07:41;;;;;;;1.38;1.15;;;17.20;99.90;17.20;101230.00;;;;4970420;28;93051;-64
2021/09/28 08:10:15;;;;;;;1.08;0.77;;;17.20;99.90;17.20;101240.00;;;;4971086;28;92988;-64
2021/09/28 08:12:41;;;;;;;1.52;1.08;;;17.10;99.90;17.10;101249.00;;;;4970388;28;94254;-63
2021/09/28 08:15:08;;;;;;;0.77;0.77;;;17.00;99.90;17.10;101246.00;;;;4969826;28;116541;-64
2021/09/28 08:17:33;;;;;;;2.38;0.90;;;17.00;99.90;17.10;101259.00;;;;4971226;28;93164;-63
2021/09/28 08:19:59;;;;;;;0.90;0.60;;;17.00;99.90;17.10;101262.00;;;;4971043;28;92921;-63
2021/09/28 08:22:25;;;;;;;1.25;1.15;;;16.90;99.90;17.00;101257.00;;;;4969542;28;107485;-65
2021/09/28 08:24:55;;;;;;;0.60;0.60;;;17.00;99.90;17.00;101261.00;;;;4969810;28;105812;-64
2021/09/28 08:30:09;;;;;;;0.82;0.70;;;16.90;99.90;17.00;101260.00;;;;4970627;28;92954;-65
2021/09/28 08:32:35;;;;;;;1.52;0.88;;;16.90;99.90;17.00;101256.00;;;;4970482;28;94047;-65
2021/09/28 08:35:01;;;;;;;2.25;0.82;;;16.90;99.90;17.00;101255.00;;;;4970501;28;93194;-65
2021/09/28 08:37:27;;;;;;;0.80;0.73;;;16.90;99.90;17.00;101265.00;;;;4970147;28;92732;-65
2021/09/28 08:39:54;;;;;;;1.42;0.98;;;16.80;99.90;16.90;101272.00;;;;4970996;28;92129;-64
2021/09/28 08:42:21;;;;;;;1.73;1.00;;;16.80;99.90;17.00;101278.00;;;;4971111;28;93248;-64
2021/09/28 08:44:47;;;;;;;0.60;0.60;;;16.80;99.90;17.00;101276.00;;;;4969530;28;93658;-65
2021/09/28 08:47:13;;;;;;;1.13;1.02;;;16.80;99.90;17.00;101279.00;;;;4952061;28;94064;-66
2021/09/28 08:49:40;;;;;;;0.75;0.75;;;16.80;99.90;17.00;101275.00;;;;4970546;28;108652;-64
2021/09/28 08:52:07;;;;;;;0.85;0.70;;;17.00;99.90;17.00;101282.00;;;;4969347;28;93613;-65
2021/09/28 08:54:33;;;;;;;0.65;0.57;;;16.90;99.90;17.00;101278.00;;;;4970642;28;94393;-66
2021/09/28 08:57:00;;;;;;;4.60;1.05;;;16.90;99.90;17.00;101284.00;;;;4962880;28;92834;-64
2021/09/28 08:59:49;;;;;;;1.38;0.60;;;16.90;99.90;16.90;101278.00;;;;4961397;28;93358;-64
2021/09/28 09:02:15;;;;;;;0.65;0.57;;;16.80;99.90;16.90;101286.00;;;;4968881;28;93511;-64
2021/09/28 09:04:42;;;;;;;0.30;0.30;;;16.80;99.90;16.90;101285.00;;;;4968992;28;94189;-64
2021/09/28 09:07:23;;;;;;;0.50;0.50;;;16.80;99.90;16.90;101283.00;;;;4970195;28;92729;-65
2021/09/28 09:09:49;;;;;;;0.88;0.63;;;16.80;99.90;16.90;101286.00;;;;4970262;28;93319;-66
2021/09/28 09:12:32;;;;;;;1.05;0.40;;;16.80;99.90;16.90;101292.00;;;;4970689;28;109748;-63
2021/09/28 09:15:25;;;;;;;1.02;0.63;;;16.80;99.90;16.80;101304.00;;;;4973083;28;93776;-64
2021/09/28 09:17:55;;;;;;;2.40;0.60;;;16.80;99.90;16.80;101296.00;;;;4972826;28;92798;-63
2021/09/28 09:20:42;;;;;;;0.73;0.50;;;16.70;99.90;16.90;101294.00;;;;4974423;28;93574;-64
2021/09/28 09:23:32;;;;;;;0.82;0.63;;;16.70;99.90;16.90;101296.00;;;;4974227;27;92778;-65
2021/09/28 09:26:17;;;;;;;0.68;0.68;;;16.80;99.90;16.90;101297.00;;;;4973023;28;92792;-65
2021/09/28 09:28:48;;;;;;;0.60;0.50;;;16.70;99.90;16.80;101301.00;;;;4965130;28;92901;-65
2021/09/28 09:31:34;;;;;;;1.10;0.68;;;16.70;99.90;16.80;101305.00;;;;4973696;28;92212;-66
2021/09/28 09:34:14;;;;;;;1.25;1.05;;;16.70;99.90;16.80;101308.00;;;;4972594;28;93722;-64
2021/09/28 09:36:40;;;;;;;3.17;0.65;;;16.70;99.90;16.90;101314.00;;;;4972541;28;93384;-65
2021/09/28 09:39:11;;;;;;;1.67;0.93;;;16.70;99.90;16.90;101319.00;;;;4972012;28;93666;-65
2021/09/28 09:41:39;;;;;;;1.80;0.68;;;16.70;99.90;16.90;101309.00;;;;4973399;28;93069;-65
2021/09/28 09:44:15;;;;;;;1.35;0.95;;;16.90;99.90;16.90;101320.00;;;;4963881;28;94124;-64
2021/09/28 09:46:50;;;;;;;0.70;0.70;;;16.80;99.90;16.90;101317.00;;;;4956282;28;93296;-67
2021/09/28 09:49:30;;;;;;;0.95;0.68;;;16.80;99.90;16.90;101315.00;;;;4963831;28;93249;-64
2021/09/28 09:52:03;;;;;;;1.27;0.63;;;16.80;99.90;16.90;101321.00;;;;4940891;28;93161;-64
2021/09/28 09:54:42;;;;;;;0.80;0.80;;;16.80;99.90;16.80;101317.00;;;;4972565;28;93801;-64
2021/09/28 09:57:11;;;;;;;1.00;0.88;;;16.70;99.90;16.90;101322.00;;;;4972354;28;93530;-64
2021/09/28 09:59:38;;;;;;;0.50;0.50;;;16.70;99.90;16.90;101325.00;;;;4972471;28;93677;-64
2021/09/28 10:02:05;;;;;;;1.50;0.98;;;16.80;99.90;16.90;101329.00;;;;4973773;28;93322;-64
2021/09/28 10:04:31;;;;;;;0.40;0.40;;;16.70;99.90;16.90;101340.00;;;;4972018;28;94154;-64
2021/09/28 10:07:01;;;;;;;0.45;0.28;;;16.80;99.90;16.90;101334.00;;;;4972532;28;96769;-64
2021/09/28 10:09:34;;;;;;;3.90;0.63;;;16.80;99.90;16.90;101338.00;;;;4972238;28;92695;-65
2021/09/28 10:12:04;;;;;;;0.80;0.77;;;16.80;99.90;16.80;101339.00;;;;4973487;28;92819;-63
2021/09/28 10:14:42;;;;;;;1.98;1.02;;;16.70;99.90;16.80;101341.00;;;;4972158;28;93649;-63
2021/09/28 10:17:36;;;;;;;0.95;0.95;;;17.20;99.90;16.60;101343.00;;;;4971201;28;106574;-64
2021/09/28 10:20:04;;;;;;;1.15;1.05;;;16.60;99.90;16.50;101351.00;;;;4967478;28;92886;-63
2021/09/28 10:22:36;;;;;;;1.05;0.55;;;16.50;99.90;16.40;101349.00;;;;4972522;28;91838;-64
2021/09/28 10:25:23;;;;;;;1.15;0.70;;;16.30;99.90;16.20;101344.00;;;;4971639;28;93738;-64
2021/09/28 10:28:03;;;;;;;0.93;0.73;;;16.20;99.90;16.10;101356.00;;;;4971065;28;93980;-64
2021/09/28 10:30:35;;;;;;;0.80;0.80;;;16.10;99.90;16.10;101349.00;;;;4964793;28;93866;-65
2021/09/28 10:33:27;;;;;;;0.77;0.77;;;16.00;99.90;15.90;101356.00;;;;4970753;28;92971;-64
2021/09/28 10:35:56;;;;;;;0.73;0.73;;;16.00;99.90;15.90;101359.00;;;;4971855;28;93257;-66
2021/09/28 10:38:53;;;;;;;1.55;1.10;;;15.90;99.90;15.80;101358.00;;;;4963950;28;93760;-67
2021/09/28 10:41:31;;;;;;;1.75;0.93;;;15.80;99.90;15.80;101358.00;;;;4958020;28;92876;-66
2021/09/28 10:44:44;;;;;;;1.00;0.77;;;15.70;99.90;15.80;101356.00;;;;4971988;28;92846;-66
2021/09/28 10:47:47;;;;;;;1.70;1.05;;;15.70;99.90;15.70;101347.00;;;;4971886;28;93841;-66
2021/09/28 10:50:25;;;;;;;2.90;1.42;;;15.70;99.90;15.80;101347.00;;;;4973752;28;92240;-65